Time,TemperatureF,DewpointF,PressureIn,WindDirection,WindDirectionDegrees,WindSpeedMPH,WindSpeedGustMPH,Humidity,HourlyPrecipIn,Conditions,Clouds,dailyrainin,SolarRadiationWatts/m^2,SoftwareType,DateUTC
2013-01-08 00:02:00,41.8,25.0,30.19,North,11,22.0,28.0,52,0.00,,,0.00,0,weatherlink.com 1.10,2013-01-08 07:02:00,
2013-01-08 00:17:00,41.6,27.0,30.21,NNW,328,12.0,23.0,56,0.00,,,0.00,0,weatherlink.com 1.10,2013-01-08 07:17:00,
2013-01-08 00:32:00,41.7,26.0,30.21,NNW,340,13.0,24.0,55,0.00,,,0.00,0,weatherlink.com 1.10,2013-01-08 07:32:00,
2013-01-08 00:47:00,41.6,26.0,30.21,NW,308,12.0,25.0,55,0.00,,,0.00,0,weatherlink.com 1.10,2013-01-08 07:47:00,
2013-01-08 01:02:00,41.8,26.0,30.21,NNW,329,7.0,23.0,54,0.00,,,0.00,0,weatherlink.com 1.10,2013-01-08 08:02:00,
2013-01-08 01:17:00,40.2,28.0,30.21,NNW,347,9.0,16.0,61,0.00,,,0.00,0,weatherlink.com 1.10,2013-01-08 08:17:00,
2013-01-08 01:32:00,40.7,27.0,30.22,North,355,12.0,23.0,59,0.00,,,0.00,0,weatherlink.com 1.10,2013-01-08 08:32:00,
2013-01-08 01:47:00,38.9,28.0,30.23,NNE,30,24.0,25.0,65,0.00,,,0.00,0,weatherlink.com 1.10,2013-01-08 08:47:00,
2013-01-08 02:02:00,39.2,28.0,30.23,North,360,13.0,24.0,65,0.00,,,0.00,0,weatherlink.com 1.10,2013-01-08 09:02:00,
2013-01-08 02:17:00,39.7,28.0,30.24,North,10,15.0,23.0,63,0.00,,,0.00,0,weatherlink.com 1.10,2013-01-08 09:17:00,
2013-01-08 02:32:00,38.9,28.0,30.25,NNW,342,17.0,24.0,65,0.00,,,0.00,0,weatherlink.com 1.10,2013-01-08 09:32:00,
2013-01-08 02:47:00,39.8,26.0,30.26,NNW,340,12.0,28.0,58,0.00,,,0.00,0,weatherlink.com 1.10,2013-01-08 09:47:00,
2013-01-08 03:02:00,39.3,26.0,30.26,NNE,20,12.0,27.0,59,0.00,,,0.00,0,weatherlink.com 1.10,2013-01-08 10:02:00,
2013-01-08 03:17:00,38.6,27.0,30.27,NNE,24,19.0,27.0,63,0.00,,,0.00,0,weatherlink.com 1.10,2013-01-08 10:17:00,
2013-01-08 03:32:00,38.5,27.0,30.28,North,5,20.0,28.0,64,0.00,,,0.00,0,weatherlink.com 1.10,2013-01-08 10:32:00,
2013-01-08 03:47:00,38.2,27.0,30.29,North,5,20.0,26.0,65,0.00,,,0.00,0,weatherlink.com 1.10,2013-01-08 10:47:00,
2013-01-08 04:02:00,38.2,27.0,30.30,North,360,14.0,28.0,64,0.00,,,0.00,0,weatherlink.com 1.10,2013-01-08 11:02:00,
2013-01-08 04:17:00,38.3,27.0,30.31,NNE,15,22.0,31.0,63,0.00,,,0.00,0,weatherlink.com 1.10,2013-01-08 11:17:00,
2013-01-08 04:32:00,38.0,27.0,30.31,NNW,344,15.0,24.0,64,0.00,,,0.00,0,weatherlink.com 1.10,2013-01-08 11:32:00,
2013-01-08 04:47:00,37.8,27.0,30.32,NNW,346,15.0,22.0,65,0.00,,,0.00,0,weatherlink.com 1.10,2013-01-08 11:47:00,
2013-01-08 05:02:00,38.1,26.0,30.33,NNW,336,12.0,18.0,63,0.00,,,0.00,0,weatherlink.com 1.10,2013-01-08 12:02:00,
2013-01-08 05:17:00,37.7,26.0,30.33,North,355,13.0,18.0,63,0.00,,,0.00,0,weatherlink.com 1.10,2013-01-08 12:17:00,
2013-01-08 05:32:00,37.9,26.0,30.33,NW,319,14.0,17.0,62,0.00,,,0.00,0,weatherlink.com 1.10,2013-01-08 12:32:00,
2013-01-08 05:47:00,37.7,26.0,30.34,NNW,332,10.0,20.0,63,0.00,,,0.00,0,weatherlink.com 1.10,2013-01-08 12:47:00,
2013-01-08 06:02:00,36.9,26.0,30.35,WNW,299,10.0,14.0,65,0.00,,,0.00,0,weatherlink.com 1.10,2013-01-08 13:02:00,
2013-01-08 06:17:00,36.8,26.0,30.35,NNW,327,7.0,10.0,64,0.00,,,0.00,0,weatherlink.com 1.10,2013-01-08 13:17:00,
2013-01-08 06:32:00,36.6,26.0,30.36,NNW,347,10.0,13.0,65,0.00,,,0.00,0,weatherlink.com 1.10,2013-01-08 13:32:00,
2013-01-08 06:47:00,36.6,25.0,30.37,North,10,6.0,11.0,64,0.00,,,0.00,0,weatherlink.com 1.10,2013-01-08 13:47:00,
2013-01-08 07:02:00,36.9,25.0,30.37,NNE,23,6.0,12.0,62,0.00,,,0.00,0,weatherlink.com 1.10,2013-01-08 14:02:00,
2013-01-08 07:17:00,36.7,25.0,30.37,North,11,3.0,10.0,63,0.00,,,0.00,0,weatherlink.com 1.10,2013-01-08 14:17:00,
2013-01-08 07:32:00,36.4,25.0,30.37,East,88,8.0,11.0,63,0.00,,,0.00,0,weatherlink.com 1.10,2013-01-08 14:32:00,
2013-01-08 07:47:00,37.7,23.0,30.39,NE,47,4.0,12.0,55,0.00,,,0.00,0,weatherlink.com 1.10,2013-01-08 14:47:00,
2013-01-08 08:03:00,38.3,22.0,30.40,SSE,148,6.0,8.0,53,0.00,,,0.00,0,weatherlink.com 1.10,2013-01-08 15:03:00,
2013-01-08 08:18:00,38.3,22.0,30.41,SSW,198,10.0,13.0,52,0.00,,,0.00,0,weatherlink.com 1.10,2013-01-08 15:18:00,
2013-01-08 08:33:00,38.3,21.0,30.42,SSW,195,7.0,9.0,51,0.00,,,0.00,5,weatherlink.com 1.10,2013-01-08 15:33:00,
2013-01-08 08:48:00,37.3,23.0,30.42,WSW,242,5.0,12.0,56,0.00,,,0.00,19,weatherlink.com 1.10,2013-01-08 15:48:00,
2013-01-08 09:03:00,37.2,22.0,30.43,West,278,2.0,5.0,55,0.00,,,0.00,35,weatherlink.com 1.10,2013-01-08 16:03:00,
2013-01-08 09:18:00,37.5,22.0,30.44,South,181,3.0,5.0,54,0.00,,,0.00,53,weatherlink.com 1.10,2013-01-08 16:18:00,
2013-01-08 09:33:00,38.2,21.0,30.44,South,178,2.0,4.0,51,0.00,,,0.00,60,weatherlink.com 1.10,2013-01-08 16:33:00,
2013-01-08 09:48:00,38.3,21.0,30.45,SSE,165,3.0,6.0,51,0.00,,,0.00,95,weatherlink.com 1.10,2013-01-08 16:48:00,
2013-01-08 10:03:00,38.5,23.0,30.45,South,171,9.0,11.0,53,0.00,,,0.00,116,weatherlink.com 1.10,2013-01-08 17:03:00,
2013-01-08 10:18:00,39.0,23.0,30.45,South,183,0.0,7.0,52,0.00,,,0.00,113,weatherlink.com 1.10,2013-01-08 17:18:00,
2013-01-08 10:33:00,39.3,22.0,30.45,North,360,0.0,4.0,50,0.00,,,0.00,118,weatherlink.com 1.10,2013-01-08 17:33:00,
2013-01-08 10:48:00,38.7,23.0,30.44,North,360,1.0,4.0,53,0.00,,,0.00,120,weatherlink.com 1.10,2013-01-08 17:48:00,
2013-01-08 11:03:00,38.8,22.0,30.45,North,9,4.0,5.0,51,0.00,,,0.00,114,weatherlink.com 1.10,2013-01-08 18:03:00,
2013-01-08 11:18:00,37.9,24.0,30.44,NNE,14,10.0,12.0,57,0.00,,,0.00,118,weatherlink.com 1.10,2013-01-08 18:18:00,
2013-01-08 11:33:00,37.8,24.0,30.43,North,5,10.0,13.0,59,0.00,,,0.00,229,weatherlink.com 1.10,2013-01-08 18:33:00,
2013-01-08 11:48:00,38.0,25.0,30.42,NNE,20,10.0,12.0,59,0.00,,,0.00,272,weatherlink.com 1.10,2013-01-08 18:48:00,
2013-01-08 12:03:00,37.8,24.0,30.41,NNE,14,6.0,12.0,59,0.00,,,0.00,167,weatherlink.com 1.10,2013-01-08 19:03:00,
2013-01-08 12:18:00,38.2,24.0,30.41,SSE,148,4.0,11.0,56,0.00,,,0.00,188,weatherlink.com 1.10,2013-01-08 19:18:00,
2013-01-08 12:33:00,38.9,24.0,30.40,ESE,111,0.0,5.0,55,0.00,,,0.00,185,weatherlink.com 1.10,2013-01-08 19:33:00,
2013-01-08 12:48:00,38.7,24.0,30.38,NE,48,5.0,6.0,56,0.00,,,0.00,206,weatherlink.com 1.10,2013-01-08 19:48:00,
2013-01-08 13:03:00,38.7,24.0,30.38,NE,50,2.0,5.0,55,0.00,,,0.00,246,weatherlink.com 1.10,2013-01-08 20:03:00,
2013-01-08 13:18:00,39.2,24.0,30.38,NE,49,2.0,3.0,54,0.00,,,0.00,202,weatherlink.com 1.10,2013-01-08 20:18:00,
2013-01-08 13:33:00,39.5,24.0,30.38,North,5,4.0,6.0,55,0.00,,,0.00,218,weatherlink.com 1.10,2013-01-08 20:33:00,
2013-01-08 13:48:00,39.7,24.0,30.37,North,5,3.0,5.0,54,0.00,,,0.00,279,weatherlink.com 1.10,2013-01-08 20:48:00,
2013-01-08 14:03:00,40.1,24.0,30.37,North,360,4.0,4.0,53,0.00,,,0.00,209,weatherlink.com 1.10,2013-01-08 21:03:00,
2013-01-08 14:18:00,40.0,24.0,30.36,North,360,1.0,2.0,53,0.00,,,0.00,250,weatherlink.com 1.10,2013-01-08 21:18:00,
2013-01-08 14:33:00,39.3,24.0,30.37,NNW,327,2.0,6.0,54,0.00,,,0.00,185,weatherlink.com 1.10,2013-01-08 21:33:00,
2013-01-08 14:48:00,39.5,24.0,30.36,NNW,346,2.0,4.0,55,0.00,,,0.00,109,weatherlink.com 1.10,2013-01-08 21:48:00,
2013-01-08 15:03:00,39.0,24.0,30.36,NE,36,5.0,6.0,55,0.00,,,0.00,109,weatherlink.com 1.10,2013-01-08 22:03:00,
2013-01-08 15:18:00,38.7,25.0,30.36,NNE,22,5.0,5.0,58,0.00,,,0.00,63,weatherlink.com 1.10,2013-01-08 22:18:00,
2013-01-08 15:33:00,38.2,24.0,30.36,North,11,3.0,8.0,58,0.00,,,0.00,51,weatherlink.com 1.10,2013-01-08 22:33:00,
2013-01-08 15:48:00,37.6,26.0,30.36,North,360,6.0,7.0,64,0.00,,,0.00,25,weatherlink.com 1.10,2013-01-08 22:48:00,
2013-01-08 16:03:00,36.6,26.0,30.36,North,351,6.0,7.0,66,0.00,,,0.00,19,weatherlink.com 1.10,2013-01-08 23:03:00,
2013-01-08 16:18:00,36.0,26.0,30.35,North,10,4.0,7.0,68,0.00,,,0.00,23,weatherlink.com 1.10,2013-01-08 23:18:00,
2013-01-08 16:33:00,35.9,26.0,30.35,North,11,4.0,7.0,68,0.00,,,0.00,16,weatherlink.com 1.10,2013-01-08 23:33:00,
2013-01-08 16:48:00,35.7,26.0,30.34,North,5,4.0,6.0,69,0.00,,,0.00,5,weatherlink.com 1.10,2013-01-08 23:48:00,
2013-01-08 17:03:00,35.1,27.0,30.35,NNE,14,5.0,6.0,71,0.00,,,0.00,0,weatherlink.com 1.10,2013-01-09 00:03:00,
2013-01-08 17:18:00,34.5,27.0,30.34,North,9,4.0,6.0,74,0.00,,,0.00,0,weatherlink.com 1.10,2013-01-09 00:18:00,
2013-01-08 17:33:00,33.9,27.0,30.34,NNE,13,4.0,7.0,77,0.00,,,0.00,0,weatherlink.com 1.10,2013-01-09 00:33:00,
2013-01-08 17:48:00,34.5,27.0,30.34,NNW,348,4.0,4.0,75,0.00,,,0.00,0,weatherlink.com 1.10,2013-01-09 00:48:00,
2013-01-08 18:03:00,33.9,28.0,30.34,North,9,4.0,5.0,78,0.00,,,0.00,0,weatherlink.com 1.10,2013-01-09 01:03:00,
2013-01-08 18:19:00,33.4,27.0,30.33,NNE,30,2.0,3.0,78,0.00,,,0.00,0,weatherlink.com 1.10,2013-01-09 01:19:00,
2013-01-08 18:34:00,34.6,27.0,30.33,South,176,2.0,5.0,74,0.00,,,0.00,0,weatherlink.com 1.10,2013-01-09 01:34:00,
2013-01-08 18:49:00,35.9,27.0,30.33,WSW,238,0.0,5.0,71,0.00,,,0.00,0,weatherlink.com 1.10,2013-01-09 01:49:00,
2013-01-08 19:04:00,35.3,28.0,30.33,East,89,3.0,3.0,74,0.00,,,0.00,0,weatherlink.com 1.10,2013-01-09 02:04:00,
2013-01-08 19:19:00,37.7,29.0,30.33,SSE,165,3.0,8.0,71,0.00,,,0.00,0,weatherlink.com 1.10,2013-01-09 02:19:00,
2013-01-08 19:34:00,37.3,29.0,30.32,South,182,5.0,10.0,72,0.00,,,0.00,0,weatherlink.com 1.10,2013-01-09 02:34:00,
2013-01-08 19:49:00,37.8,30.0,30.32,SW,234,7.0,13.0,73,0.00,,,0.00,0,weatherlink.com 1.10,2013-01-09 02:49:00,
2013-01-08 20:04:00,37.0,29.0,30.32,South,176,4.0,7.0,74,0.00,,,0.00,0,weatherlink.com 1.10,2013-01-09 03:04:00,
2013-01-08 20:19:00,38.2,30.0,30.31,SSE,161,7.0,8.0,73,0.00,,,0.00,0,weatherlink.com 1.10,2013-01-09 03:19:00,
2013-01-08 20:34:00,38.2,30.0,30.31,SSW,204,2.0,7.0,73,0.00,,,0.00,0,weatherlink.com 1.10,2013-01-09 03:34:00,
2013-01-08 20:49:00,38.3,31.0,30.31,SSE,157,2.0,7.0,74,0.00,,,0.00,0,weatherlink.com 1.10,2013-01-09 03:49:00,
2013-01-08 21:04:00,39.6,31.0,30.31,SE,144,10.0,10.0,72,0.00,,,0.00,0,weatherlink.com 1.10,2013-01-09 04:04:00,
2013-01-08 21:19:00,41.1,32.0,30.30,SE,140,13.0,17.0,70,0.00,,,0.00,0,weatherlink.com 1.10,2013-01-09 04:19:00,
2013-01-08 21:34:00,41.6,32.0,30.31,South,190,13.0,17.0,70,0.00,,,0.00,0,weatherlink.com 1.10,2013-01-09 04:34:00,
2013-01-08 21:49:00,41.6,32.0,30.30,SE,140,12.0,25.0,70,0.00,,,0.00,0,weatherlink.com 1.10,2013-01-09 04:49:00,
2013-01-08 22:04:00,41.9,33.0,30.30,SE,139,11.0,19.0,70,0.00,,,0.00,0,weatherlink.com 1.10,2013-01-09 05:04:00,
2013-01-08 22:19:00,42.2,33.0,30.30,SSE,157,13.0,16.0,70,0.00,,,0.00,0,weatherlink.com 1.10,2013-01-09 05:19:00,
2013-01-08 22:34:00,42.1,33.0,30.30,SSE,155,15.0,17.0,70,0.00,,,0.00,0,weatherlink.com 1.10,2013-01-09 05:34:00,
2013-01-08 22:49:00,42.7,33.0,30.29,SSE,157,11.0,16.0,69,0.00,,,0.00,0,weatherlink.com 1.10,2013-01-09 05:49:00,
2013-01-08 23:04:00,42.8,33.0,30.29,SSE,165,3.0,16.0,69,0.00,,,0.00,0,weatherlink.com 1.10,2013-01-09 06:04:00,
2013-01-08 23:19:00,42.7,33.0,30.30,SSE,156,5.0,10.0,69,0.00,,,0.00,0,weatherlink.com 1.10,2013-01-09 06:19:00,
2013-01-08 23:34:00,42.8,33.0,30.29,SSE,158,9.0,16.0,69,0.00,,,0.00,0,weatherlink.com 1.10,2013-01-09 06:34:00,
2013-01-08 23:49:00,42.8,33.0,30.29,SE,134,10.0,15.0,69,0.00,,,0.00,0,weatherlink.com 1.10,2013-01-09 06:49:00,